Time;durP1;ratioP1;P1;durP2;ratioP2;P2;SDS_P1;SDS_P2;PMS_P1;PMS_P2;Temp;Humidity;BMP_temperature;BMP_pressure;BME280_temperature;BME280_humidity;BME280_pressure;Samples;Min_cycle;Max_cycle;Signal;HPM_P1;HPM_P2
2022/07/03 00:01:49;;;;;;;4.05;2.55;;;17.20;94.70;;;;;;5047315;28;20034;-81
2022/07/03 00:04:15;;;;;;;2.45;2.25;;;17.20;94.60;;;;;;5044931;28;20111;-80
2022/07/03 00:06:41;;;;;;;3.67;2.60;;;17.20;94.70;;;;;;5052974;28;20026;-81
2022/07/03 00:09:07;;;;;;;2.78;2.55;;;17.20;94.70;;;;;;5059196;28;20025;-81
2022/07/03 00:11:33;;;;;;;2.35;2.10;;;17.30;94.90;;;;;;5056123;28;20029;-80
2022/07/03 00:13:59;;;;;;;3.60;2.92;;;17.30;94.90;;;;;;5055544;28;20025;-81
2022/07/03 00:16:25;;;;;;;3.28;2.50;;;17.40;94.90;;;;;;5055979;28;20085;-80
2022/07/03 00:18:51;;;;;;;2.70;2.50;;;17.40;94.90;;;;;;5056229;28;20013;-81
2022/07/03 00:21:23;;;;;;;2.80;2.15;;;17.50;94.90;;;;;;5058742;28;20024;-79
2022/07/03 00:24:26;;;;;;;2.58;2.38;;;17.50;94.80;;;;;;5045280;28;20037;-81
2022/07/03 00:26:53;;;;;;;3.72;2.88;;;17.70;94.50;;;;;;5040243;28;20034;-81
2022/07/03 00:29:26;;;;;;;2.40;2.08;;;17.70;94.50;;;;;;5041922;28;20028;-80
2022/07/03 00:31:52;;;;;;;2.22;2.03;;;17.80;94.10;;;;;;5049249;28;20041;-79
2022/07/03 00:34:18;;;;;;;2.90;2.42;;;17.80;94.00;;;;;;5053518;28;20096;-81
2022/07/03 00:36:47;;;;;;;2.75;2.22;;;17.80;93.90;;;;;;5061399;28;20022;-80
2022/07/03 00:39:12;;;;;;;2.55;2.30;;;17.80;93.90;;;;;;5069394;28;20025;-81
2022/07/03 00:41:38;;;;;;;3.05;2.22;;;17.90;94.00;;;;;;5067088;28;20068;-78
2022/07/03 00:44:04;;;;;;;2.60;2.20;;;17.90;94.00;;;;;;5052858;28;20018;-79
2022/07/03 00:46:30;;;;;;;2.60;2.40;;;17.90;94.00;;;;;;5053540;28;20026;-80
2022/07/03 00:48:57;;;;;;;2.60;2.40;;;17.90;94.00;;;;;;5049084;28;20044;-81
2022/07/03 00:51:25;;;;;;;2.55;2.33;;;17.90;94.10;;;;;;5045628;28;20398;-81
2022/07/03 00:53:52;;;;;;;3.42;2.42;;;17.90;94.10;;;;;;5046074;28;20071;-81
2022/07/03 00:56:31;;;;;;;3.15;2.85;;;17.90;94.10;;;;;;5045904;28;20037;-81
2022/07/03 00:59:00;;;;;;;5.18;3.47;;;17.90;94.20;;;;;;5045489;28;20053;-80
2022/07/03 01:01:31;;;;;;;4.28;3.47;;;17.90;94.30;;;;;;5044394;28;20025;-81
2022/07/03 01:04:30;;;;;;;4.45;3.47;;;17.80;94.30;;;;;;5044486;28;20037;-81
2022/07/03 01:07:12;;;;;;;4.75;3.28;;;17.90;94.30;;;;;;5048016;28;20044;-81
2022/07/03 01:10:25;;;;;;;3.75;3.33;;;17.80;94.20;;;;;;5059787;28;20025;-81
2022/07/03 01:13:13;;;;;;;4.00;3.60;;;17.80;94.20;;;;;;4932709;29;20059;-80
2022/07/03 01:16:02;;;;;;;4.68;4.13;;;17.80;94.20;;;;;;5014116;28;20121;-80
2022/07/03 01:18:46;;;;;;;6.28;4.22;;;17.80;94.30;;;;;;5019517;28;20029;-80
2022/07/03 01:21:30;;;;;;;5.70;3.75;;;17.80;94.60;;;;;;5028589;28;20094;-80
2022/07/03 01:24:10;;;;;;;3.65;3.10;;;17.70;94.60;;;;;;5040521;28;20104;-79
2022/07/03 01:26:38;;;;;;;3.85;3.28;;;17.60;94.30;;;;;;5040657;28;20044;-79
2022/07/03 01:29:18;;;;;;;3.38;3.00;;;17.60;94.10;;;;;;5041652;28;20076;-81
2022/07/03 01:31:47;;;;;;;3.05;2.60;;;17.50;94.30;;;;;;5040560;28;20052;-80
2022/07/03 01:34:15;;;;;;;3.70;2.90;;;17.50;94.00;;;;;;5039633;28;20498;-80
2022/07/03 01:36:43;;;;;;;3.05;2.75;;;17.40;94.00;;;;;;5048037;28;20024;-79
2022/07/03 01:39:10;;;;;;;2.65;2.45;;;17.40;94.20;;;;;;5054102;28;20481;-78
2022/07/03 01:41:37;;;;;;;1.88;1.77;;;17.40;94.30;;;;;;5059406;28;20420;-79
2022/07/03 01:44:05;;;;;;;3.10;2.75;;;17.50;94.40;;;;;;5062666;28;20033;-81
2022/07/03 01:46:32;;;;;;;2.60;2.40;;;17.50;94.50;;;;;;5061358;28;20030;-79
2022/07/03 01:48:59;;;;;;;6.30;3.10;;;17.60;94.60;;;;;;5050841;28;20138;-79
2022/07/03 01:51:26;;;;;;;4.13;2.40;;;17.60;94.60;;;;;;5040366;28;20030;-81
2022/07/03 01:53:53;;;;;;;3.22;2.92;;;17.60;94.70;;;;;;5040080;28;20486;-81
2022/07/03 01:56:21;;;;;;;3.13;2.70;;;17.70;94.80;;;;;;5040434;28;20045;-80
2022/07/03 01:58:48;;;;;;;4.05;2.70;;;17.60;95.00;;;;;;5039850;28;20018;-81
2022/07/03 02:01:30;;;;;;;5.28;3.50;;;17.70;95.10;;;;;;5040269;28;20366;-81
2022/07/03 02:04:05;;;;;;;4.28;3.70;;;17.60;95.30;;;;;;5039675;28;20029;-82
2022/07/03 02:06:36;;;;;;;5.70;3.60;;;17.60;95.60;;;;;;5046812;28;20462;-81
2022/07/03 02:09:07;;;;;;;4.20;3.65;;;17.50;95.80;;;;;;5055137;28;20025;-79
2022/07/03 02:11:39;;;;;;;4.20;3.80;;;17.50;95.90;;;;;;5064054;28;20033;-80
2022/07/03 02:14:15;;;;;;;5.20;4.30;;;17.40;96.20;;;;;;5062530;28;20055;-79
2022/07/03 02:16:53;;;;;;;5.03;4.13;;;17.30;96.30;;;;;;5062032;28;20021;-79
2022/07/03 02:19:28;;;;;;;5.32;4.32;;;17.20;96.40;;;;;;5058244;28;20052;-81
2022/07/03 02:21:56;;;;;;;5.80;4.28;;;17.20;96.60;;;;;;5019706;28;20053;-80
2022/07/03 02:24:26;;;;;;;7.03;4.10;;;17.10;96.90;;;;;;5018830;28;20018;-80
2022/07/03 02:26:59;;;;;;;4.28;3.33;;;17.10;97.00;;;;;;5035033;28;20073;-79
2022/07/03 02:29:35;;;;;;;3.83;3.08;;;17.10;97.10;;;;;;5020734;28;20022;-78
2022/07/03 02:32:10;;;;;;;3.60;3.30;;;17.00;97.10;;;;;;5020928;28;20025;-80
2022/07/03 02:34:38;;;;;;;3.72;3.00;;;17.00;97.20;;;;;;5018472;28;20014;-80
2022/07/03 02:37:11;;;;;;;4.60;3.22;;;16.90;97.40;;;;;;5051434;28;20481;-79
2022/07/03 02:40:44;;;;;;;6.50;3.22;;;16.90;97.50;;;;;;5038613;28;20100;-81
2022/07/03 02:43:38;;;;;;;4.63;2.95;;;16.90;97.70;;;;;;4907583;28;20052;-79
2022/07/03 02:46:49;;;;;;;4.15;3.05;;;16.90;97.70;;;;;;5037011;28;20057;-81
2022/07/03 02:49:48;;;;;;;3.33;2.80;;;16.90;97.70;;;;;;5038156;28;20021;-80
2022/07/03 02:52:34;;;;;;;3.58;2.70;;;16.90;97.90;;;;;;5037423;28;20013;-80
2022/07/03 02:55:18;;;;;;;3.78;2.80;;;16.80;98.00;;;;;;5039362;28;20037;-79
2022/07/03 02:57:45;;;;;;;2.67;2.47;;;16.80;98.20;;;;;;5036532;28;20056;-79
2022/07/03 03:00:12;;;;;;;2.42;2.20;;;16.80;98.40;;;;;;5038284;28;20048;-80
2022/07/03 03:02:50;;;;;;;2.55;2.20;;;16.80;98.50;;;;;;5037275;28;20082;-78
2022/07/03 03:05:25;;;;;;;2.15;1.98;;;16.70;98.50;;;;;;5037873;28;20109;-79
2022/07/03 03:08:06;;;;;;;1.70;1.55;;;16.70;98.60;;;;;;5038579;28;20423;-79
2022/07/03 03:10:39;;;;;;;2.63;2.30;;;16.60;98.80;;;;;;5037593;28;20021;-80
2022/07/03 03:13:06;;;;;;;1.95;1.80;;;16.60;98.90;;;;;;5038131;28;20033;-78
2022/07/03 03:15:34;;;;;;;2.25;2.13;;;16.60;99.10;;;;;;5039530;28;20490;-81
2022/07/03 03:18:22;;;;;;;3.25;2.30;;;16.60;99.30;;;;;;5037796;28;20017;-80
2022/07/03 03:20:50;;;;;;;1.88;1.77;;;16.60;99.60;;;;;;5044018;28;20026;-79
2022/07/03 03:23:43;;;;;;;2.90;2.47;;;16.50;99.80;;;;;;5042202;28;20025;-81
2022/07/03 03:26:11;;;;;;;2.45;2.05;;;16.50;99.90;;;;;;5042284;28;20040;-79
2022/07/03 03:28:37;;;;;;;2.17;1.95;;;16.40;99.90;;;;;;5044957;28;20060;-79
2022/07/03 03:31:07;;;;;;;1.85;1.70;;;16.40;99.90;;;;;;5052599;28;20034;-79
2022/07/03 03:33:37;;;;;;;1.98;1.85;;;16.40;99.90;;;;;;5052881;28;20010;-79
2022/07/03 03:36:04;;;;;;;1.70;1.60;;;16.40;99.90;;;;;;5048993;28;20056;-80
2022/07/03 03:38:30;;;;;;;1.50;1.40;;;16.40;99.90;;;;;;5056064;28;20095;-79
2022/07/03 03:40:56;;;;;;;3.63;1.73;;;16.40;99.90;;;;;;5064565;28;20029;-79
2022/07/03 03:43:21;;;;;;;2.70;1.85;;;16.40;99.90;;;;;;5062718;28;20457;-80
2022/07/03 03:45:48;;;;;;;1.85;1.75;;;16.40;99.90;;;;;;5049492;28;20029;-77
2022/07/03 03:48:17;;;;;;;1.60;1.50;;;16.40;99.90;;;;;;5055362;28;20052;-79
2022/07/03 03:50:43;;;;;;;2.25;1.98;;;16.50;99.90;;;;;;5042720;28;20434;-79
2022/07/03 03:53:11;;;;;;;1.88;1.73;;;16.50;99.90;;;;;;5044874;28;20025;-78
2022/07/03 03:55:37;;;;;;;1.67;1.58;;;16.50;99.90;;;;;;5046730;28;20018;-78
2022/07/03 03:58:04;;;;;;;1.58;1.48;;;16.50;99.90;;;;;;5048584;28;20112;-77
2022/07/03 04:00:30;;;;;;;1.73;1.60;;;16.50;99.90;;;;;;5050364;28;20056;-76
2022/07/03 04:02:56;;;;;;;1.75;1.65;;;16.60;99.90;;;;;;5050808;28;20111;-76
2022/07/03 04:05:21;;;;;;;2.00;1.70;;;16.60;99.90;;;;;;5051454;28;20025;-77
2022/07/03 04:07:47;;;;;;;1.27;1.17;;;16.60;99.90;;;;;;5061972;28;20037;-77
2022/07/03 04:10:13;;;;;;;1.70;1.60;;;16.60;99.90;;;;;;5070279;28;20039;-77
2022/07/03 04:12:38;;;;;;;3.70;2.17;;;16.70;99.90;;;;;;5069745;28;20016;-76
2022/07/03 04:15:04;;;;;;;1.52;1.42;;;16.70;99.90;;;;;;5068831;28;20025;-77
2022/07/03 04:17:30;;;;;;;1.50;1.40;;;16.70;99.90;;;;;;5074524;28;20017;-76
2022/07/03 04:19:56;;;;;;;1.90;1.35;;;16.70;99.90;;;;;;5079677;28;20017;-77
2022/07/03 04:22:21;;;;;;;4.03;1.50;;;16.70;99.90;;;;;;5062387;28;20037;-80
2022/07/03 04:24:47;;;;;;;1.83;1.73;;;16.80;99.90;;;;;;5063323;28;20092;-79
2022/07/03 04:27:13;;;;;;;2.75;1.60;;;16.80;99.90;;;;;;5061371;28;20372;-79
2022/07/03 04:29:38;;;;;;;3.10;1.90;;;16.90;99.90;;;;;;5062066;28;20493;-79
2022/07/03 04:32:04;;;;;;;1.90;1.80;;;16.90;99.90;;;;;;5062252;28;20033;-79
2022/07/03 04:34:30;;;;;;;2.33;1.70;;;17.00;99.90;;;;;;5046332;28;20441;-78
2022/07/03 04:36:56;;;;;;;2.25;1.88;;;17.00;99.90;;;;;;5047282;28;20017;-78
2022/07/03 04:39:21;;;;;;;1.65;1.55;;;17.10;99.90;;;;;;5063902;28;20029;-79
2022/07/03 04:41:47;;;;;;;2.47;1.80;;;17.10;99.90;;;;;;5045749;28;20033;-80
2022/07/03 04:44:13;;;;;;;2.30;1.90;;;17.20;99.90;;;;;;5042873;28;20041;-81
2022/07/03 04:46:40;;;;;;;1.92;1.83;;;17.30;99.90;;;;;;5041886;28;20421;-83
2022/07/03 04:49:05;;;;;;;1.35;1.30;;;17.30;99.90;;;;;;5041382;28;20536;-80
2022/07/03 04:51:31;;;;;;;1.60;1.50;;;17.40;99.90;;;;;;5041433;28;20029;-80
2022/07/03 04:53:56;;;;;;;2.25;1.50;;;17.50;99.90;;;;;;5042130;28;20033;-80
2022/07/03 04:56:22;;;;;;;2.55;1.38;;;17.50;99.90;;;;;;5041518;28;20052;-80
2022/07/03 04:58:48;;;;;;;1.70;1.60;;;17.60;99.90;;;;;;5043745;28;20497;-81
2022/07/03 05:01:13;;;;;;;1.85;1.70;;;17.70;99.90;;;;;;5051978;28;20030;-80
2022/07/03 05:03:39;;;;;;;1.48;1.38;;;17.80;99.90;;;;;;5048987;28;20037;-81
2022/07/03 05:06:05;;;;;;;2.00;1.70;;;17.90;99.90;;;;;;5047923;28;20040;-82
2022/07/03 05:08:30;;;;;;;1.70;1.60;;;17.90;99.90;;;;;;5043171;28;20022;-80
2022/07/03 05:10:56;;;;;;;1.77;1.67;;;18.10;99.90;;;;;;5029216;28;20045;-81
2022/07/03 05:13:22;;;;;;;1.20;1.20;;;19.70;99.90;;;;;;5022495;28;20086;-81
2022/07/03 05:15:48;;;;;;;1.40;1.30;;;22.70;95.40;;;;;;5027680;28;20463;-81
2022/07/03 05:18:13;;;;;;;1.30;1.20;;;26.30;84.30;;;;;;5042054;28;20037;-82
2022/07/03 05:20:39;;;;;;;0.73;0.73;;;29.30;70.20;;;;;;5043997;28;20021;-82
2022/07/03 05:23:05;;;;;;;0.95;0.93;;;31.40;60.30;;;;;;5043766;28;20091;-83
2022/07/03 05:25:31;;;;;;;1.17;1.10;;;32.90;55.40;;;;;;5046738;28;20025;-81
2022/07/03 05:27:58;;;;;;;1.00;1.00;;;33.90;52.40;;;;;;5045769;28;20028;-82
2022/07/03 05:30:25;;;;;;;2.50;1.20;;;34.70;49.90;;;;;;5043065;28;20028;-82
2022/07/03 05:32:51;;;;;;;1.10;1.08;;;35.50;48.00;;;;;;5046228;28;20033;-82
2022/07/03 05:35:17;;;;;;;0.85;0.85;;;35.80;46.90;;;;;;5043702;28;20017;-82
2022/07/03 05:37:43;;;;;;;1.65;1.52;;;36.10;45.50;;;;;;5060943;28;20040;-83
2022/07/03 05:40:09;;;;;;;1.13;1.10;;;36.60;45.00;;;;;;5044014;28;20021;-82
2022/07/03 05:42:35;;;;;;;1.17;1.17;;;36.80;44.60;;;;;;5046310;28;20033;-82
2022/07/03 05:45:02;;;;;;;1.10;1.10;;;37.00;44.30;;;;;;5053706;28;20028;-81
2022/07/03 05:47:28;;;;;;;2.38;1.25;;;37.40;43.70;;;;;;5055708;28;20047;-82
2022/07/03 05:49:54;;;;;;;1.10;1.10;;;37.50;43.00;;;;;;5043943;28;20085;-83
2022/07/03 05:52:20;;;;;;;1.48;1.20;;;37.70;42.80;;;;;;5046013;28;20034;-83
2022/07/03 05:54:46;;;;;;;1.10;1.10;;;38.20;42.30;;;;;;5047460;28;20032;-82
2022/07/03 05:57:12;;;;;;;1.00;1.00;;;38.30;42.20;;;;;;5055536;28;20026;-83
2022/07/03 05:59:38;;;;;;;1.60;1.20;;;38.50;41.70;;;;;;5056818;28;20043;-83
2022/07/03 06:02:04;;;;;;;1.10;1.10;;;38.70;41.80;;;;;;5054438;28;20069;-83
2022/07/03 06:04:29;;;;;;;1.13;1.10;;;39.10;40.90;;;;;;5043867;28;20085;-83
2022/07/03 06:06:55;;;;;;;1.38;1.30;;;39.40;40.70;;;;;;5048273;28;20020;-83
2022/07/03 06:09:24;;;;;;;1.20;1.20;;;39.40;40.20;;;;;;5068482;28;20028;-82
2022/07/03 06:11:50;;;;;;;1.20;1.10;;;39.30;40.10;;;;;;5069410;28;20025;-82
2022/07/03 06:14:16;;;;;;;1.00;1.00;;;39.40;40.40;;;;;;5050790;28;20028;-82
2022/07/03 06:16:42;;;;;;;1.50;1.40;;;39.60;40.40;;;;;;5046266;28;20429;-82
2022/07/03 06:19:07;;;;;;;1.02;1.02;;;39.80;40.00;;;;;;5045518;28;20036;-84
2022/07/03 06:21:33;;;;;;;1.60;1.50;;;39.80;39.60;;;;;;5042801;28;20032;-82
2022/07/03 06:23:59;;;;;;;1.23;1.23;;;39.90;39.70;;;;;;5044015;28;20164;-83
2022/07/03 06:26:26;;;;;;;1.15;1.15;;;40.00;39.50;;;;;;5042905;28;20018;-82
2022/07/03 06:28:51;;;;;;;1.23;1.23;;;40.10;39.40;;;;;;5042585;28;20030;-83
2022/07/03 06:31:17;;;;;;;1.10;1.02;;;40.10;38.80;;;;;;5048219;28;20052;-83
2022/07/03 06:33:43;;;;;;;1.13;1.13;;;39.80;38.80;;;;;;5049406;28;20036;-83
2022/07/03 06:36:09;;;;;;;1.27;1.27;;;39.80;39.00;;;;;;5057422;28;20024;-82
2022/07/03 06:38:34;;;;;;;1.27;1.27;;;40.00;39.20;;;;;;5059934;28;20025;-82
2022/07/03 06:41:00;;;;;;;1.23;1.23;;;39.90;39.30;;;;;;5050745;28;20029;-83
2022/07/03 06:43:25;;;;;;;1.35;1.25;;;40.00;38.80;;;;;;5050400;28;20069;-83
2022/07/03 06:45:51;;;;;;;1.42;1.42;;;40.00;38.40;;;;;;5048939;28;20051;-82
2022/07/03 06:48:17;;;;;;;1.52;1.27;;;39.90;38.20;;;;;;5047345;28;20089;-83
2022/07/03 06:50:42;;;;;;;1.52;1.42;;;39.70;38.50;;;;;;5049966;28;20029;-82
2022/07/03 06:53:09;;;;;;;1.60;1.50;;;39.20;38.20;;;;;;5049837;28;20080;-82
2022/07/03 06:55:35;;;;;;;1.63;1.13;;;38.90;39.30;;;;;;5046295;28;20139;-82
2022/07/03 06:58:00;;;;;;;2.97;1.20;;;38.50;38.80;;;;;;5044091;28;20033;-81
2022/07/03 07:00:26;;;;;;;1.10;1.10;;;38.40;39.00;;;;;;5042625;28;20025;-80
2022/07/03 07:02:52;;;;;;;1.67;1.05;;;38.40;38.90;;;;;;5041600;28;20049;-80
2022/07/03 07:05:17;;;;;;;1.48;1.20;;;38.50;38.80;;;;;;5043417;28;20018;-82
2022/07/03 07:07:43;;;;;;;1.30;1.20;;;38.20;39.00;;;;;;5072154;28;20072;-80
2022/07/03 07:10:09;;;;;;;1.50;1.40;;;38.00;39.00;;;;;;5062492;28;20093;-80
2022/07/03 07:12:35;;;;;;;1.20;1.20;;;38.00;39.30;;;;;;5051973;28;20096;-81
2022/07/03 07:15:00;;;;;;;1.10;1.10;;;38.10;39.10;;;;;;5048184;28;20037;-85
2022/07/03 07:17:26;;;;;;;1.50;1.30;;;37.90;39.30;;;;;;5043295;28;20018;-84
2022/07/03 07:19:54;;;;;;;1.20;1.20;;;37.60;39.80;;;;;;5045282;28;20026;-84
2022/07/03 07:22:19;;;;;;;2.53;1.67;;;37.30;40.10;;;;;;5043087;28;20090;-83
2022/07/03 07:24:45;;;;;;;1.45;1.35;;;35.80;40.60;;;;;;5041484;28;20022;-83
2022/07/03 07:27:10;;;;;;;1.50;1.40;;;32.60;43.90;;;;;;5039585;28;20030;-83
2022/07/03 07:29:36;;;;;;;1.38;1.27;;;30.00;48.40;;;;;;5040767;28;20029;-83
2022/07/03 07:32:02;;;;;;;2.88;1.27;;;28.00;52.30;;;;;;5040185;28;20410;-84
2022/07/03 07:34:27;;;;;;;2.13;1.70;;;26.90;55.10;;;;;;5041240;28;20113;-84
2022/07/03 07:36:53;;;;;;;1.48;1.45;;;26.10;57.20;;;;;;5051852;28;20032;-84
2022/07/03 07:39:19;;;;;;;1.08;1.08;;;25.60;58.90;;;;;;5057932;28;20108;-85
2022/07/03 07:41:45;;;;;;;1.50;1.40;;;25.30;59.80;;;;;;5064442;28;20036;-84
2022/07/03 07:44:10;;;;;;;1.10;1.10;;;25.00;61.00;;;;;;5074686;28;20041;-81
2022/07/03 07:46:36;;;;;;;3.10;1.50;;;24.90;61.60;;;;;;5076144;28;20025;-81
2022/07/03 07:49:01;;;;;;;1.17;1.15;;;24.90;62.00;;;;;;5052183;28;20036;-83
2022/07/03 07:51:27;;;;;;;1.35;1.25;;;24.80;62.10;;;;;;5040149;28;20371;-82
2022/07/03 07:53:56;;;;;;;3.75;1.60;;;24.80;62.00;;;;;;5040314;28;20100;-83
2022/07/03 07:56:23;;;;;;;1.50;1.10;;;24.80;62.10;;;;;;5039819;28;20089;-83
2022/07/03 07:58:49;;;;;;;2.28;1.27;;;24.80;61.30;;;;;;5040233;28;20087;-83
2022/07/03 08:06:42;;;;;;;2.35;1.30;;;24.70;61.30;;;;;;5051429;28;20028;-81
2022/07/03 08:09:08;;;;;;;1.40;1.30;;;24.70;60.90;;;;;;5062892;28;20025;-84
2022/07/03 08:11:34;;;;;;;0.80;0.80;;;24.70;61.40;;;;;;5063916;28;20469;-83
2022/07/03 08:13:59;;;;;;;1.25;1.20;;;24.80;61.40;;;;;;5062274;28;20025;-83
2022/07/03 08:16:25;;;;;;;1.30;1.20;;;24.90;60.60;;;;;;5064786;28;20021;-83
2022/07/03 08:18:52;;;;;;;1.30;1.20;;;25.00;60.20;;;;;;5043911;28;20079;-83
2022/07/03 08:21:18;;;;;;;2.25;1.10;;;25.00;59.30;;;;;;5041069;28;20079;-84
2022/07/03 08:23:43;;;;;;;1.10;1.10;;;25.10;59.00;;;;;;5040322;28;20029;-84
2022/07/03 08:26:09;;;;;;;1.20;1.10;;;25.10;59.50;;;;;;5043958;28;20025;-84
2022/07/03 08:28:35;;;;;;;0.98;0.98;;;25.20;59.10;;;;;;5045105;28;20404;-82
2022/07/03 08:31:00;;;;;;;1.52;1.40;;;25.30;58.70;;;;;;5043526;28;20136;-81
2022/07/03 08:33:26;;;;;;;1.02;1.00;;;25.40;57.20;;;;;;5044438;28;20467;-83
2022/07/03 08:35:52;;;;;;;1.25;1.20;;;25.40;57.90;;;;;;5043531;28;20029;-83
2022/07/03 08:38:18;;;;;;;3.40;1.00;;;25.50;58.20;;;;;;5055953;28;20096;-85
2022/07/03 08:40:46;;;;;;;0.90;0.90;;;25.60;57.90;;;;;;5062085;28;20026;-83
2022/07/03 08:43:12;;;;;;;1.17;0.88;;;25.60;57.40;;;;;;5046176;28;20014;-82
2022/07/03 08:45:39;;;;;;;1.15;1.13;;;25.70;57.00;;;;;;5046873;28;20035;-83
2022/07/03 08:48:07;;;;;;;1.55;1.20;;;25.70;56.80;;;;;;5042690;28;20122;-82
2022/07/03 08:50:34;;;;;;;4.82;1.40;;;25.80;56.60;;;;;;5045769;28;20281;-83
2022/07/03 08:53:02;;;;;;;2.67;1.20;;;25.90;55.70;;;;;;5045834;28;20041;-82
2022/07/03 08:55:28;;;;;;;0.80;0.80;;;25.90;55.20;;;;;;5044415;28;20021;-84
2022/07/03 08:57:58;;;;;;;0.70;0.70;;;26.10;55.20;;;;;;5045799;28;20103;-82
2022/07/03 09:00:26;;;;;;;0.82;0.82;;;26.20;54.90;;;;;;5057724;28;20044;-82
2022/07/03 09:02:52;;;;;;;1.00;1.00;;;26.20;54.80;;;;;;5056707;28;20029;-83
2022/07/03 09:05:18;;;;;;;1.23;1.08;;;26.30;55.10;;;;;;5058469;28;20033;-81
2022/07/03 09:07:45;;;;;;;1.10;1.00;;;26.30;54.40;;;;;;5067979;28;20022;-81
2022/07/03 09:10:14;;;;;;;0.90;0.88;;;26.40;53.50;;;;;;5058378;28;20032;-80
2022/07/03 09:12:39;;;;;;;1.10;1.00;;;26.40;53.80;;;;;;5057797;28;20040;-82
2022/07/03 09:15:08;;;;;;;0.68;0.68;;;26.60;53.40;;;;;;5058115;28;20026;-82
2022/07/03 09:17:34;;;;;;;0.70;0.70;;;26.70;52.30;;;;;;5057564;28;20083;-80
2022/07/03 09:20:05;;;;;;;1.40;1.00;;;26.80;52.70;;;;;;5057587;28;20048;-81
2022/07/03 09:22:34;;;;;;;1.30;0.93;;;27.00;52.30;;;;;;5056484;28;20037;-81
2022/07/03 09:25:14;;;;;;;1.27;1.00;;;27.10;51.60;;;;;;5043867;28;20029;-80
2022/07/03 09:27:51;;;;;;;2.70;0.98;;;27.20;51.70;;;;;;5044812;28;20079;-83
2022/07/03 09:30:16;;;;;;;0.90;0.90;;;27.30;51.60;;;;;;5046093;28;20056;-82
2022/07/03 09:32:46;;;;;;;2.20;0.80;;;27.40;51.50;;;;;;5042837;28;20025;-82
2022/07/03 09:35:17;;;;;;;1.90;0.98;;;27.40;50.30;;;;;;5041531;28;20091;-80
2022/07/03 09:38:01;;;;;;;3.45;0.90;;;27.40;49.80;;;;;;5066321;28;20049;-82
2022/07/03 09:40:48;;;;;;;5.78;1.33;;;27.60;49.60;;;;;;5041661;28;20041;-81
2022/07/03 09:43:14;;;;;;;1.00;1.00;;;27.70;48.80;;;;;;5043527;28;20022;-81
2022/07/03 09:46:02;;;;;;;0.77;0.77;;;27.70;49.00;;;;;;5050343;28;20018;-82
2022/07/03 09:48:33;;;;;;;1.95;1.00;;;27.80;49.30;;;;;;5051785;28;20088;-81
2022/07/03 09:51:23;;;;;;;1.13;0.90;;;27.90;48.70;;;;;;5023456;28;20072;-85
2022/07/03 09:54:00;;;;;;;1.20;0.90;;;27.90;49.50;;;;;;5024367;28;20049;-84
2022/07/03 09:56:28;;;;;;;0.98;0.82;;;27.90;49.60;;;;;;5038212;28;20018;-85
2022/07/03 09:59:10;;;;;;;0.57;0.57;;;28.00;48.50;;;;;;5027834;28;20029;-84
2022/07/03 10:01:37;;;;;;;;;;;28.10;49.20;;;;;;5043934;28;20029;-86
2022/07/03 10:04:28;;;;;;;2.05;0.95;;;28.30;50.00;;;;;;5041828;28;19928;-84
2022/07/03 10:06:56;;;;;;;1.30;0.98;;;28.30;48.10;;;;;;5023120;28;20038;-85
2022/07/03 10:09:34;;;;;;;0.98;0.85;;;28.40;47.50;;;;;;5028964;28;20029;-85
2022/07/03 10:12:03;;;;;;;1.50;0.80;;;28.40;46.80;;;;;;5041641;28;20025;-85
2022/07/03 10:14:31;;;;;;;1.33;0.75;;;28.40;46.00;;;;;;5039657;28;20033;-85
2022/07/03 10:16:58;;;;;;;0.75;0.75;;;28.50;44.00;;;;;;5041015;28;20025;-83
2022/07/03 10:19:29;;;;;;;2.20;1.20;;;28.60;45.10;;;;;;5040056;28;20018;-85
2022/07/03 10:22:02;;;;;;;5.57;2.90;;;28.70;45.50;;;;;;5041511;28;20109;-84
2022/07/03 10:24:31;;;;;;;1.50;1.40;;;28.70;45.40;;;;;;5045790;28;20033;-85
2022/07/03 10:26:59;;;;;;;0.80;0.80;;;28.80;45.10;;;;;;5046382;28;20021;-85
2022/07/03 10:29:28;;;;;;;5.38;1.48;;;29.00;44.80;;;;;;5047692;28;20033;-84
2022/07/03 10:31:54;;;;;;;1.33;1.10;;;29.10;42.20;;;;;;5043961;28;20021;-84
2022/07/03 10:34:22;;;;;;;0.93;0.93;;;29.20;43.40;;;;;;5051887;28;20071;-83
2022/07/03 10:36:53;;;;;;;1.15;1.05;;;29.20;42.00;;;;;;5057126;28;20025;-84
2022/07/03 10:39:40;;;;;;;12.55;7.47;;;29.30;43.60;;;;;;5060599;28;20017;-84
2022/07/03 10:45:09;;;;;;;1.83;1.17;;;29.40;44.30;;;;;;5021734;28;20086;-84
2022/07/03 10:47:48;;;;;;;0.98;0.93;;;29.50;43.20;;;;;;5021675;28;20025;-84
2022/07/03 10:50:18;;;;;;;0.70;0.70;;;29.50;43.30;;;;;;5024700;28;20032;-83
2022/07/03 10:52:44;;;;;;;1.05;0.98;;;29.60;42.70;;;;;;5042788;28;20029;-85
2022/07/03 10:55:11;;;;;;;0.82;0.82;;;29.80;42.60;;;;;;5044528;28;20021;-85
2022/07/03 10:57:38;;;;;;;1.42;1.08;;;29.80;42.40;;;;;;5044028;28;20022;-85
2022/07/03 11:00:12;;;;;;;0.93;0.93;;;29.70;42.20;;;;;;5040098;28;20025;-83
2022/07/03 11:02:40;;;;;;;1.13;1.00;;;29.90;42.90;;;;;;5040711;28;20033;-83
2022/07/03 11:05:06;;;;;;;2.10;0.90;;;30.00;44.20;;;;;;5036399;28;20022;-84
2022/07/03 11:07:50;;;;;;;1.20;0.90;;;30.10;42.60;;;;;;5049687;28;20013;-85
2022/07/03 11:13:20;;;;;;;1.00;1.00;;;30.30;41.90;;;;;;5027920;28;20037;-85
2022/07/03 11:15:52;;;;;;;0.85;0.77;;;30.50;42.10;;;;;;5030644;28;20060;-85
2022/07/03 11:18:28;;;;;;;1.00;1.00;;;30.70;41.00;;;;;;5034969;28;20049;-83
2022/07/03 11:20:53;;;;;;;1.00;1.00;;;31.00;40.50;;;;;;5036053;28;20438;-83
2022/07/03 11:23:25;;;;;;;0.90;0.90;;;31.00;40.90;;;;;;5034703;28;20038;-83
2022/07/03 11:26:02;;;;;;;1.00;0.90;;;31.00;40.00;;;;;;5039489;28;20081;-82
2022/07/03 11:28:30;;;;;;;1.30;0.90;;;31.00;41.10;;;;;;5031181;28;20014;-84
2022/07/03 11:31:24;;;;;;;0.90;0.90;;;31.00;41.10;;;;;;5032457;28;20386;-84
2022/07/03 11:33:58;;;;;;;0.82;0.73;;;31.00;40.30;;;;;;5031330;28;20037;-83
2022/07/03 11:36:28;;;;;;;0.70;0.70;;;31.00;39.00;;;;;;5046489;28;20032;-83
2022/07/03 11:39:03;;;;;;;2.85;0.98;;;31.00;40.10;;;;;;5049552;28;20029;-82
2022/07/03 11:41:30;;;;;;;1.40;0.93;;;31.00;40.10;;;;;;5049922;28;20022;-81
2022/07/03 11:43:59;;;;;;;0.73;0.70;;;31.00;39.70;;;;;;5058623;28;20025;-82
2022/07/03 11:46:26;;;;;;;1.20;1.10;;;31.10;39.40;;;;;;5058653;28;20014;-81
2022/07/03 11:49:38;;;;;;;1.15;1.02;;;31.20;39.30;;;;;;5056232;28;20033;-80
2022/07/03 11:52:04;;;;;;;0.98;0.98;;;31.10;39.20;;;;;;5056354;28;20045;-81
2022/07/03 11:54:33;;;;;;;0.80;0.80;;;31.10;40.40;;;;;;5057542;28;20021;-82
2022/07/03 11:57:00;;;;;;;1.20;0.98;;;31.00;38.50;;;;;;5056354;28;20064;-83
2022/07/03 11:59:27;;;;;;;0.73;0.73;;;31.00;39.80;;;;;;5064860;28;20362;-83
2022/07/03 12:02:02;;;;;;;0.90;0.90;;;31.10;38.90;;;;;;5049283;28;20037;-84
2022/07/03 12:04:28;;;;;;;1.02;1.00;;;31.20;39.40;;;;;;5044590;28;20034;-82
2022/07/03 12:06:57;;;;;;;0.75;0.75;;;31.30;39.60;;;;;;5044867;28;20025;-83
2022/07/03 12:09:26;;;;;;;0.60;0.60;;;31.40;38.70;;;;;;5025852;28;20088;-82
2022/07/03 12:11:56;;;;;;;0.93;0.80;;;31.50;39.10;;;;;;5023656;28;20029;-82
2022/07/03 12:14:51;;;;;;;2.45;0.85;;;31.50;38.00;;;;;;5024419;28;20014;-82
2022/07/03 12:17:18;;;;;;;0.80;0.77;;;31.50;38.00;;;;;;5024902;28;20025;-83
2022/07/03 12:19:47;;;;;;;0.70;0.70;;;31.60;38.30;;;;;;5025993;28;20039;-82
2022/07/03 12:22:32;;;;;;;1.10;1.00;;;31.70;37.70;;;;;;5031758;28;20025;-83
2022/07/03 12:25:04;;;;;;;0.80;0.80;;;31.60;39.50;;;;;;5043491;28;20441;-83
2022/07/03 12:27:37;;;;;;;;;;;31.50;37.70;;;;;;5044026;28;20029;-83
2022/07/03 12:30:05;;;;;;;0.80;0.80;;;31.40;37.00;;;;;;5042431;28;19909;-83
2022/07/03 12:32:31;;;;;;;0.80;0.77;;;31.40;37.70;;;;;;5044903;28;20026;-84
2022/07/03 12:34:57;;;;;;;0.70;0.70;;;31.30;38.10;;;;;;5044162;28;20021;-83
2022/07/03 12:37:33;;;;;;;2.38;0.80;;;31.40;38.20;;;;;;5061297;28;20091;-80
2022/07/03 12:39:59;;;;;;;1.77;0.80;;;31.50;37.30;;;;;;5043580;28;20026;-82
2022/07/03 12:42:24;;;;;;;1.02;0.90;;;31.50;37.80;;;;;;5042428;28;20039;-83
2022/07/03 12:45:04;;;;;;;0.90;0.90;;;31.60;38.70;;;;;;5039158;28;20021;-83
2022/07/03 12:47:31;;;;;;;1.08;0.98;;;31.60;37.30;;;;;;5040685;28;20017;-83
2022/07/03 12:50:12;;;;;;;3.25;0.88;;;31.60;38.20;;;;;;5044778;28;20093;-83
2022/07/03 12:52:55;;;;;;;1.50;1.10;;;31.60;38.90;;;;;;5042413;28;20022;-81
2022/07/03 12:55:29;;;;;;;0.85;0.80;;;31.70;38.50;;;;;;5051032;28;20025;-81
2022/07/03 13:01:01;;;;;;;1.83;1.20;;;31.70;38.10;;;;;;5025017;28;20107;-83
2022/07/03 13:03:31;;;;;;;1.52;1.13;;;31.70;37.50;;;;;;5034808;28;20049;-83
2022/07/03 13:05:57;;;;;;;0.80;0.80;;;31.70;38.00;;;;;;5095492;22;20097;-84
2022/07/03 13:08:23;;;;;;;2.92;1.52;;;31.70;37.30;;;;;;5041695;28;20026;-81
2022/07/03 13:10:59;;;;;;;1.85;0.98;;;31.70;38.50;;;;;;5025514;28;20193;-83
2022/07/03 13:13:26;;;;;;;0.88;0.88;;;31.70;37.60;;;;;;5022510;28;20053;-82
2022/07/03 13:15:52;;;;;;;0.73;0.73;;;31.70;38.00;;;;;;5037090;28;20021;-85
2022/07/03 13:18:18;;;;;;;0.73;0.70;;;31.70;37.80;;;;;;5044364;28;20021;-83